sensor_id;sensor_type;location;lat;lon;timestamp;pressure;altitude;pressure_sealevel;temperature;humidity
73151;BME280;61354;50.758;6.106;2024-01-30T00:00:42;100156.41;;;10.37;87.39
73151;BME280;61354;50.758;6.106;2024-01-30T00:03:26;100154.41;;;10.47;87.46
73151;BME280;61354;50.758;6.106;2024-01-30T00:06:11;100157.53;;;10.45;87.20
73151;BME280;61354;50.758;6.106;2024-01-30T00:08:56;100159.16;;;10.46;87.62
73151;BME280;61354;50.758;6.106;2024-01-30T00:11:40;100149.38;;;10.40;88.05
73151;BME280;61354;50.758;6.106;2024-01-30T00:14:23;100158.03;;;10.38;88.09
73151;BME280;61354;50.758;6.106;2024-01-30T00:17:07;100148.06;;;10.46;88.07
73151;BME280;61354;50.758;6.106;2024-01-30T00:19:51;100141.16;;;10.52;87.44
73151;BME280;61354;50.758;6.106;2024-01-30T00:22:35;100146.72;;;10.52;87.79
73151;BME280;61354;50.758;6.106;2024-01-30T00:25:19;100144.13;;;10.47;87.78
73151;BME280;61354;50.758;6.106;2024-01-30T00:28:03;100144.50;;;10.37;88.44
73151;BME280;61354;50.758;6.106;2024-01-30T00:30:47;100140.19;;;10.48;88.13
73151;BME280;61354;50.758;6.106;2024-01-30T00:33:31;100130.84;;;10.53;87.56
73151;BME280;61354;50.758;6.106;2024-01-30T00:36:15;100138.41;;;10.43;88.06
73151;BME280;61354;50.758;6.106;2024-01-30T00:38:59;100131.38;;;10.46;88.53
73151;BME280;61354;50.758;6.106;2024-01-30T00:41:43;100127.56;;;10.59;87.77
73151;BME280;61354;50.758;6.106;2024-01-30T00:44:27;100124.94;;;10.63;87.63
73151;BME280;61354;50.758;6.106;2024-01-30T00:47:11;100120.78;;;10.78;86.63
73151;BME280;61354;50.758;6.106;2024-01-30T00:49:55;100122.28;;;10.75;86.63
73151;BME280;61354;50.758;6.106;2024-01-30T00:52:39;100113.88;;;10.84;86.29
73151;BME280;61354;50.758;6.106;2024-01-30T00:55:25;100123.09;;;10.76;86.55
73151;BME280;61354;50.758;6.106;2024-01-30T00:58:09;100124.44;;;10.99;85.59
73151;BME280;61354;50.758;6.106;2024-01-30T01:00:53;100123.59;;;10.99;85.38
73151;BME280;61354;50.758;6.106;2024-01-30T01:03:36;100118.66;;;11.04;85.53
73151;BME280;61354;50.758;6.106;2024-01-30T01:06:20;100118.13;;;11.11;84.68
73151;BME280;61354;50.758;6.106;2024-01-30T01:09:04;100119.56;;;11.17;84.17
73151;BME280;61354;50.758;6.106;2024-01-30T01:11:48;100115.09;;;11.25;84.05
73151;BME280;61354;50.758;6.106;2024-01-30T01:14:32;100122.63;;;11.24;83.65
73151;BME280;61354;50.758;6.106;2024-01-30T01:17:16;100115.75;;;11.22;83.75
73151;BME280;61354;50.758;6.106;2024-01-30T01:20:02;100128.72;;;11.17;84.15
73151;BME280;61354;50.758;6.106;2024-01-30T01:22:47;100118.75;;;11.16;84.11
73151;BME280;61354;50.758;6.106;2024-01-30T01:25:30;100126.44;;;11.11;84.44
73151;BME280;61354;50.758;6.106;2024-01-30T01:28:14;100120.06;;;11.10;84.58
73151;BME280;61354;50.758;6.106;2024-01-30T01:30:59;100123.81;;;11.14;84.31
73151;BME280;61354;50.758;6.106;2024-01-30T01:33:48;100119.88;;;11.15;84.30
73151;BME280;61354;50.758;6.106;2024-01-30T01:36:32;100118.13;;;11.11;84.16
73151;BME280;61354;50.758;6.106;2024-01-30T01:39:17;100117.16;;;11.07;84.82
73151;BME280;61354;50.758;6.106;2024-01-30T01:42:01;100112.69;;;11.14;84.69
73151;BME280;61354;50.758;6.106;2024-01-30T01:44:45;100114.59;;;11.23;84.15
73151;BME280;61354;50.758;6.106;2024-01-30T01:47:30;100127.75;;;11.13;84.29
73151;BME280;61354;50.758;6.106;2024-01-30T01:50:15;100125.06;;;11.26;83.73
73151;BME280;61354;50.758;6.106;2024-01-30T01:53:03;100120.38;;;11.17;84.32
73151;BME280;61354;50.758;6.106;2024-01-30T01:55:47;100123.81;;;11.14;84.74
73151;BME280;61354;50.758;6.106;2024-01-30T01:58:31;100121.25;;;11.09;84.61
73151;BME280;61354;50.758;6.106;2024-01-30T02:01:18;100121.09;;;11.27;84.17
73151;BME280;61354;50.758;6.106;2024-01-30T02:04:04;100121.31;;;11.22;84.31
73151;BME280;61354;50.758;6.106;2024-01-30T02:06:48;100123.00;;;11.35;83.37
73151;BME280;61354;50.758;6.106;2024-01-30T02:09:33;100122.34;;;11.17;84.53
73151;BME280;61354;50.758;6.106;2024-01-30T02:12:17;100119.88;;;11.15;84.73
73151;BME280;61354;50.758;6.106;2024-01-30T02:15:01;100112.03;;;11.17;84.64
73151;BME280;61354;50.758;6.106;2024-01-30T02:17:45;100115.00;;;11.12;84.56
73151;BME280;61354;50.758;6.106;2024-01-30T02:20:30;100112.03;;;11.17;85.01
73151;BME280;61354;50.758;6.106;2024-01-30T02:23:15;100106.47;;;11.17;84.84
73151;BME280;61354;50.758;6.106;2024-01-30T02:26:00;100110.53;;;11.20;84.69
73151;BME280;61354;50.758;6.106;2024-01-30T02:28:44;100091.91;;;11.20;84.56
73151;BME280;61354;50.758;6.106;2024-01-30T02:31:28;100101.56;;;11.56;82.94
73151;BME280;61354;50.758;6.106;2024-01-30T02:34:13;100102.78;;;11.67;82.77
73151;BME280;61354;50.758;6.106;2024-01-30T02:36:57;100103.78;;;11.84;81.43
73151;BME280;61354;50.758;6.106;2024-01-30T02:39:41;100084.72;;;11.74;82.01
73151;BME280;61354;50.758;6.106;2024-01-30T02:42:25;100087.25;;;11.66;82.23
73151;BME280;61354;50.758;6.106;2024-01-30T02:45:10;100099.09;;;11.76;81.73
73151;BME280;61354;50.758;6.106;2024-01-30T02:47:54;100087.69;;;11.68;81.89
73151;BME280;61354;50.758;6.106;2024-01-30T02:50:38;100098.97;;;11.72;81.71
73151;BME280;61354;50.758;6.106;2024-01-30T02:53:22;100087.69;;;11.68;82.15
73151;BME280;61354;50.758;6.106;2024-01-30T02:56:06;100081.63;;;11.54;82.45
73151;BME280;61354;50.758;6.106;2024-01-30T02:58:53;100065.28;;;11.86;81.31
73151;BME280;61354;50.758;6.106;2024-01-30T03:01:44;100066.53;;;11.76;81.46
73151;BME280;61354;50.758;6.106;2024-01-30T03:04:28;100062.94;;;11.76;81.96
73151;BME280;61354;50.758;6.106;2024-01-30T03:07:13;100062.50;;;11.86;81.40
73151;BME280;61354;50.758;6.106;2024-01-30T03:09:58;100063.25;;;11.95;80.68
73151;BME280;61354;50.758;6.106;2024-01-30T03:12:42;100061.06;;;12.01;80.59
73151;BME280;61354;50.758;6.106;2024-01-30T03:15:26;100066.16;;;11.78;81.07
73151;BME280;61354;50.758;6.106;2024-01-30T03:18:10;100073.34;;;11.66;82.26
73151;BME280;61354;50.758;6.106;2024-01-30T03:20:54;100070.19;;;11.68;82.26
73151;BME280;61354;50.758;6.106;2024-01-30T03:23:38;100076.06;;;11.54;82.81
73151;BME280;61354;50.758;6.106;2024-01-30T03:26:22;100077.41;;;12.02;80.79
73151;BME280;61354;50.758;6.106;2024-01-30T03:29:06;100074.38;;;11.95;80.93
73151;BME280;61354;50.758;6.106;2024-01-30T03:31:50;100073.00;;;12.01;80.76
73151;BME280;61354;50.758;6.106;2024-01-30T03:34:33;100067.44;;;12.13;80.26
73151;BME280;61354;50.758;6.106;2024-01-30T03:37:17;100075.31;;;11.99;80.28
73151;BME280;61354;50.758;6.106;2024-01-30T03:40:02;100073.91;;;11.93;80.79
73151;BME280;61354;50.758;6.106;2024-01-30T03:42:47;100073.50;;;11.49;83.02
73151;BME280;61354;50.758;6.106;2024-01-30T03:45:30;100077.00;;;11.58;83.05
73151;BME280;61354;50.758;6.106;2024-01-30T03:48:14;100073.19;;;11.84;82.08
73151;BME280;61354;50.758;6.106;2024-01-30T03:50:59;100069.44;;;11.80;82.55
73151;BME280;61354;50.758;6.106;2024-01-30T03:53:43;100068.09;;;11.65;83.11
73151;BME280;61354;50.758;6.106;2024-01-30T03:56:27;100074.06;;;11.76;83.03
73151;BME280;61354;50.758;6.106;2024-01-30T03:59:11;100069.88;;;11.82;82.91
73151;BME280;61354;50.758;6.106;2024-01-30T04:01:55;100072.56;;;11.78;83.24
73151;BME280;61354;50.758;6.106;2024-01-30T04:04:39;100062.44;;;11.94;82.20
73151;BME280;61354;50.758;6.106;2024-01-30T04:07:23;100059.03;;;11.89;82.29
73151;BME280;61354;50.758;6.106;2024-01-30T04:10:07;100066.47;;;11.85;83.10
73151;BME280;61354;50.758;6.106;2024-01-30T04:12:51;100055.53;;;11.80;84.05
73151;BME280;61354;50.758;6.106;2024-01-30T04:15:35;100062.69;;;11.81;84.47
73151;BME280;61354;50.758;6.106;2024-01-30T04:18:19;100062.69;;;11.81;84.25
73151;BME280;61354;50.758;6.106;2024-01-30T04:21:03;100054.03;;;11.82;84.54
73151;BME280;61354;50.758;6.106;2024-01-30T04:23:47;100042.91;;;11.82;85.17
73151;BME280;61354;50.758;6.106;2024-01-30T04:26:31;100049.94;;;11.80;85.60
73151;BME280;61354;50.758;6.106;2024-01-30T04:29:15;100043.06;;;11.65;86.89
73151;BME280;61354;50.758;6.106;2024-01-30T04:31:59;100050.72;;;12.01;85.15
73151;BME280;61354;50.758;6.106;2024-01-30T04:34:43;100043.97;;;11.90;85.46
73151;BME280;61354;50.758;6.106;2024-01-30T04:37:27;100053.25;;;11.94;84.62
73151;BME280;61354;50.758;6.106;2024-01-30T04:40:12;100048.22;;;12.21;84.09
73151;BME280;61354;50.758;6.106;2024-01-30T04:42:56;100050.03;;;12.04;85.00
73151;BME280;61354;50.758;6.106;2024-01-30T04:45:40;100050.88;;;12.29;84.21
73151;BME280;61354;50.758;6.106;2024-01-30T04:48:24;100043.06;;;12.10;85.42
73151;BME280;61354;50.758;6.106;2024-01-30T04:51:08;100045.75;;;12.19;84.66
73151;BME280;61354;50.758;6.106;2024-01-30T04:53:52;100049.56;;;12.14;85.42
73151;BME280;61354;50.758;6.106;2024-01-30T04:56:36;100044.59;;;12.08;85.50
73151;BME280;61354;50.758;6.106;2024-01-30T04:59:20;100046.38;;;12.37;83.82
73151;BME280;61354;50.758;6.106;2024-01-30T05:02:04;100049.81;;;12.22;84.77
73151;BME280;61354;50.758;6.106;2024-01-30T05:04:48;100048.88;;;12.05;85.88
73151;BME280;61354;50.758;6.106;2024-01-30T05:07:32;100050.38;;;11.90;86.49
73151;BME280;61354;50.758;6.106;2024-01-30T05:10:16;100054.13;;;12.07;86.12
73151;BME280;61354;50.758;6.106;2024-01-30T05:13:00;100058.38;;;11.92;87.12
73151;BME280;61354;50.758;6.106;2024-01-30T05:15:44;100051.38;;;11.86;87.87
73151;BME280;61354;50.758;6.106;2024-01-30T05:18:28;100051.66;;;12.05;86.38
73151;BME280;61354;50.758;6.106;2024-01-30T05:21:12;100042.34;;;11.89;87.63
73151;BME280;61354;50.758;6.106;2024-01-30T05:23:56;100036.78;;;11.89;87.85
73151;BME280;61354;50.758;6.106;2024-01-30T05:26:40;100028.38;;;11.77;88.68
73151;BME280;61354;50.758;6.106;2024-01-30T05:29:24;100021.31;;;11.79;88.60
73151;BME280;61354;50.758;6.106;2024-01-30T05:32:08;100019.97;;;11.98;87.78
73151;BME280;61354;50.758;6.106;2024-01-30T05:34:52;100015.19;;;11.86;88.07
73151;BME280;61354;50.758;6.106;2024-01-30T05:37:36;100017.97;;;11.86;88.16
73151;BME280;61354;50.758;6.106;2024-01-30T05:40:20;100010.81;;;11.97;87.75
73151;BME280;61354;50.758;6.106;2024-01-30T05:43:04;100006.41;;;11.96;88.51
73151;BME280;61354;50.758;6.106;2024-01-30T05:45:48;100007.81;;;12.02;87.85
73151;BME280;61354;50.758;6.106;2024-01-30T05:48:32;100002.22;;;11.90;88.42
73151;BME280;61354;50.758;6.106;2024-01-30T05:51:16;100001.66;;;12.09;87.99
73151;BME280;61354;50.758;6.106;2024-01-30T05:53:59;99995.72;;;11.98;88.22
73151;BME280;61354;50.758;6.106;2024-01-30T05:56:43;100001.28;;;11.86;88.93
73151;BME280;61354;50.758;6.106;2024-01-30T05:59:27;99994.75;;;11.82;89.24
73151;BME280;61354;50.758;6.106;2024-01-30T06:02:11;99999.69;;;11.97;88.45
73151;BME280;61354;50.758;6.106;2024-01-30T06:04:55;100009.50;;;11.82;89.29
73151;BME280;61354;50.758;6.106;2024-01-30T06:07:39;100010.38;;;11.95;88.95
73151;BME280;61354;50.758;6.106;2024-01-30T06:10:23;100006.53;;;12.00;88.64
73151;BME280;61354;50.758;6.106;2024-01-30T06:13:07;100007.81;;;12.02;88.84
73151;BME280;61354;50.758;6.106;2024-01-30T06:15:51;100012.44;;;11.65;90.02
73151;BME280;61354;50.758;6.106;2024-01-30T06:18:35;100017.69;;;11.66;90.94
73151;BME280;61354;50.758;6.106;2024-01-30T06:21:19;100024.88;;;11.67;90.50
73151;BME280;61354;50.758;6.106;2024-01-30T06:24:03;100022.13;;;11.80;89.77
73151;BME280;61354;50.758;6.106;2024-01-30T06:26:47;100013.75;;;11.67;89.99
73151;BME280;61354;50.758;6.106;2024-01-30T06:29:31;100018.06;;;11.77;89.32
73151;BME280;61354;50.758;6.106;2024-01-30T06:32:15;100015.41;;;11.81;89.19
73151;BME280;61354;50.758;6.106;2024-01-30T06:35:02;100028.66;;;11.84;88.25
73151;BME280;61354;50.758;6.106;2024-01-30T06:37:47;100019.69;;;12.24;86.13
73151;BME280;61354;50.758;6.106;2024-01-30T06:40:37;100024.06;;;12.12;86.29
73151;BME280;61354;50.758;6.106;2024-01-30T06:43:22;100020.94;;;12.14;85.23
73151;BME280;61354;50.758;6.106;2024-01-30T06:46:06;100017.81;;;12.03;85.71
73151;BME280;61354;50.758;6.106;2024-01-30T06:48:50;100025.44;;;12.06;85.62
73151;BME280;61354;50.758;6.106;2024-01-30T06:51:34;100017.25;;;11.77;86.82
73151;BME280;61354;50.758;6.106;2024-01-30T06:54:18;100014.22;;;11.69;86.37
73151;BME280;61354;50.758;6.106;2024-01-30T06:57:02;100015.16;;;11.74;86.20
73151;BME280;61354;50.758;6.106;2024-01-30T06:59:46;100021.19;;;11.76;85.74
73151;BME280;61354;50.758;6.106;2024-01-30T07:09:39;100027.84;;;11.83;84.72
73151;BME280;61354;50.758;6.106;2024-01-30T07:12:23;100025.59;;;11.77;84.11
73151;BME280;61354;50.758;6.106;2024-01-30T07:15:08;100030.28;;;11.85;83.95
73151;BME280;61354;50.758;6.106;2024-01-30T07:17:52;100035.56;;;11.78;84.33
73151;BME280;61354;50.758;6.106;2024-01-30T07:20:36;100027.25;;;11.90;83.71
73151;BME280;61354;50.758;6.106;2024-01-30T07:23:20;100033.53;;;11.87;83.54
73151;BME280;61354;50.758;6.106;2024-01-30T07:26:05;100037.94;;;11.88;83.77
73151;BME280;61354;50.758;6.106;2024-01-30T07:28:50;100037.25;;;11.91;83.66
73151;BME280;61354;50.758;6.106;2024-01-30T07:31:34;100039.34;;;11.94;83.62
73151;BME280;61354;50.758;6.106;2024-01-30T07:34:18;100040.75;;;12.00;83.15
73151;BME280;61354;50.758;6.106;2024-01-30T07:37:02;100036.25;;;12.08;82.78
73151;BME280;61354;50.758;6.106;2024-01-30T07:39:47;100047.50;;;11.99;82.93
73151;BME280;61354;50.758;6.106;2024-01-30T07:42:31;100043.53;;;12.00;82.64
73151;BME280;61354;50.758;6.106;2024-01-30T07:45:15;100041.47;;;12.09;82.34
73151;BME280;61354;50.758;6.106;2024-01-30T07:48:00;100051.53;;;12.02;82.50
73151;BME280;61354;50.758;6.106;2024-01-30T07:50:44;100050.97;;;12.08;82.49
73151;BME280;61354;50.758;6.106;2024-01-30T07:53:28;100051.66;;;12.05;82.44
73151;BME280;61354;50.758;6.106;2024-01-30T07:56:12;100049.94;;;12.13;82.38
73151;BME280;61354;50.758;6.106;2024-01-30T07:58:56;100049.94;;;12.13;82.23
73151;BME280;61354;50.758;6.106;2024-01-30T08:01:41;100052.59;;;12.22;81.66
73151;BME280;61354;50.758;6.106;2024-01-30T08:04:31;100066.28;;;12.27;81.64
73151;BME280;61354;50.758;6.106;2024-01-30T08:07:24;100061.88;;;12.13;81.86
73151;BME280;61354;50.758;6.106;2024-01-30T08:10:10;100076.31;;;12.28;81.52
73151;BME280;61354;50.758;6.106;2024-01-30T08:16:38;100075.13;;;12.16;81.66
73151;BME280;61354;50.758;6.106;2024-01-30T08:26:39;100079.41;;;12.14;80.55
73151;BME280;61354;50.758;6.106;2024-01-30T08:29:23;100082.31;;;12.30;79.63
73151;BME280;61354;50.758;6.106;2024-01-30T08:32:13;100079.06;;;12.15;79.96
73151;BME280;61354;50.758;6.106;2024-01-30T08:38:22;100088.56;;;12.27;79.22
73151;BME280;61354;50.758;6.106;2024-01-30T08:41:07;100096.81;;;12.23;79.53
73151;BME280;61354;50.758;6.106;2024-01-30T08:43:52;100096.81;;;12.23;78.99
73151;BME280;61354;50.758;6.106;2024-01-30T08:46:35;100101.56;;;12.23;78.66
73151;BME280;61354;50.758;6.106;2024-01-30T08:49:20;100107.25;;;12.26;78.32
73151;BME280;61354;50.758;6.106;2024-01-30T08:52:04;100111.09;;;12.34;78.03
73151;BME280;61354;50.758;6.106;2024-01-30T08:54:49;100113.91;;;12.34;78.41
73151;BME280;61354;50.758;6.106;2024-01-30T08:57:33;100116.19;;;12.19;78.50
73151;BME280;61354;50.758;6.106;2024-01-30T09:00:17;100108.31;;;12.34;77.87
73151;BME280;61354;50.758;6.106;2024-01-30T09:03:01;100132.47;;;12.42;78.01
73151;BME280;61354;50.758;6.106;2024-01-30T09:05:45;100137.91;;;12.26;78.29
73151;BME280;61354;50.758;6.106;2024-01-30T09:08:29;100138.97;;;12.46;78.16
73151;BME280;61354;50.758;6.106;2024-01-30T09:11:14;100131.09;;;12.36;78.30
73151;BME280;61354;50.758;6.106;2024-01-30T09:13:58;100149.19;;;12.42;78.18
73151;BME280;61354;50.758;6.106;2024-01-30T09:16:42;100146.88;;;12.56;77.85
73151;BME280;61354;50.758;6.106;2024-01-30T09:19:26;100154.09;;;12.57;77.63
73151;BME280;61354;50.758;6.106;2024-01-30T09:22:10;100159.69;;;12.69;77.45
73151;BME280;61354;50.758;6.106;2024-01-30T09:24:54;100160.72;;;12.77;77.19
73151;BME280;61354;50.758;6.106;2024-01-30T09:27:38;100160.63;;;12.86;77.61
73151;BME280;61354;50.758;6.106;2024-01-30T09:30:22;100171.84;;;12.89;76.60
73151;BME280;61354;50.758;6.106;2024-01-30T09:33:06;100181.50;;;13.04;75.91
73151;BME280;61354;50.758;6.106;2024-01-30T09:35:50;100165.97;;;12.91;75.28
73151;BME280;61354;50.758;6.106;2024-01-30T09:38:34;100178.97;;;12.99;75.80
73151;BME280;61354;50.758;6.106;2024-01-30T09:41:19;100187.78;;;13.01;75.16
73151;BME280;61354;50.758;6.106;2024-01-30T09:44:04;100182.69;;;12.91;75.18
73151;BME280;61354;50.758;6.106;2024-01-30T09:46:50;100175.69;;;12.97;75.82
73151;BME280;61354;50.758;6.106;2024-01-30T09:49:34;100175.94;;;13.04;75.30
73151;BME280;61354;50.758;6.106;2024-01-30T09:52:19;100188.50;;;12.98;76.34
73151;BME280;61354;50.758;6.106;2024-01-30T09:55:04;100183.13;;;12.93;76.21
73151;BME280;61354;50.758;6.106;2024-01-30T09:57:49;100185.72;;;12.98;76.50
73151;BME280;61354;50.758;6.106;2024-01-30T10:00:33;100180.81;;;12.95;76.71
73151;BME280;61354;50.758;6.106;2024-01-30T10:03:39;100184.78;;;12.82;76.25
73151;BME280;61354;50.758;6.106;2024-01-30T10:06:24;100171.78;;;12.98;76.86
73151;BME280;61354;50.758;6.106;2024-01-30T10:12:55;100173.03;;;12.88;78.01
73151;BME280;61354;50.758;6.106;2024-01-30T10:15:39;100171.28;;;12.84;78.57
73151;BME280;61354;50.758;6.106;2024-01-30T10:18:41;100166.88;;;12.83;78.97
73151;BME280;61354;50.758;6.106;2024-01-30T10:21:37;100176.19;;;13.11;78.15
73151;BME280;61354;50.758;6.106;2024-01-30T10:31:38;100171.53;;;13.15;79.15
73151;BME280;61354;50.758;6.106;2024-01-30T10:38:37;100187.75;;;12.64;82.78
73151;BME280;61354;50.758;6.106;2024-01-30T10:41:43;100185.69;;;12.74;83.31
73151;BME280;61354;50.758;6.106;2024-01-30T10:44:43;100178.72;;;12.67;83.83
73151;BME280;61354;50.758;6.106;2024-01-30T10:51:09;100190.44;;;13.10;82.81
73151;BME280;61354;50.758;6.106;2024-01-30T10:53:55;100194.66;;;13.16;82.22
73151;BME280;61354;50.758;6.106;2024-01-30T10:56:39;100196.84;;;13.10;82.74
73151;BME280;61354;50.758;6.106;2024-01-30T10:59:24;100186.41;;;13.07;82.88
73151;BME280;61354;50.758;6.106;2024-01-30T11:02:09;100198.72;;;12.94;84.16
73151;BME280;61354;50.758;6.106;2024-01-30T11:04:58;100188.94;;;12.88;85.35
73151;BME280;61354;50.758;6.106;2024-01-30T11:07:43;100196.38;;;13.08;83.91
73151;BME280;61354;50.758;6.106;2024-01-30T11:10:27;100206.59;;;13.16;84.30
73151;BME280;61354;50.758;6.106;2024-01-30T11:13:13;100202.53;;;12.89;85.69
73151;BME280;61354;50.758;6.106;2024-01-30T11:16:02;100192.53;;;12.76;86.98
73151;BME280;61354;50.758;6.106;2024-01-30T11:18:50;100194.25;;;12.68;88.16
73151;BME280;61354;50.758;6.106;2024-01-30T11:21:43;100189.06;;;13.16;86.53
73151;BME280;61354;50.758;6.106;2024-01-30T11:24:27;100194.03;;;13.10;85.86
73151;BME280;61354;50.758;6.106;2024-01-30T11:27:11;100194.06;;;12.98;86.77
73151;BME280;61354;50.758;6.106;2024-01-30T11:30:01;100193.25;;;12.73;90.18
73151;BME280;61354;50.758;6.106;2024-01-30T11:32:45;100189.28;;;12.74;90.80
73151;BME280;61354;50.758;6.106;2024-01-30T11:35:33;100185.22;;;12.84;90.81
73151;BME280;61354;50.758;6.106;2024-01-30T11:38:17;100185.69;;;13.10;90.37
73151;BME280;61354;50.758;6.106;2024-01-30T11:41:02;100186.84;;;12.97;90.26
73151;BME280;61354;50.758;6.106;2024-01-30T11:43:53;100182.44;;;12.84;91.42
73151;BME280;61354;50.758;6.106;2024-01-30T11:46:37;100188.38;;;12.94;91.75
73151;BME280;61354;50.758;6.106;2024-01-30T11:49:21;100200.88;;;12.64;93.44
73151;BME280;61354;50.758;6.106;2024-01-30T11:52:05;100200.78;;;12.85;92.35
73151;BME280;61354;50.758;6.106;2024-01-30T11:54:50;100196.34;;;12.59;93.50
73151;BME280;61354;50.758;6.106;2024-01-30T11:57:34;100197.63;;;12.16;96.95
73151;BME280;61354;50.758;6.106;2024-01-30T12:00:21;100209.66;;;12.41;95.45
73151;BME280;61354;50.758;6.106;2024-01-30T12:03:06;100209.03;;;12.69;94.76
73151;BME280;61354;50.758;6.106;2024-01-30T12:05:57;100198.56;;;12.54;95.52
73151;BME280;61354;50.758;6.106;2024-01-30T12:08:59;100214.78;;;12.52;95.25
73151;BME280;61354;50.758;6.106;2024-01-30T12:11:44;100209.03;;;12.24;96.70
73151;BME280;61354;50.758;6.106;2024-01-30T12:14:28;100205.03;;;12.46;96.73
73151;BME280;61354;50.758;6.106;2024-01-30T12:17:27;100195.88;;;12.57;95.45
73151;BME280;61354;50.758;6.106;2024-01-30T12:20:18;100199.94;;;12.14;98.47
73151;BME280;61354;50.758;6.106;2024-01-30T12:23:02;100201.59;;;12.15;98.55
73151;BME280;61354;50.758;6.106;2024-01-30T12:25:46;100203.97;;;12.38;97.44
73151;BME280;61354;50.758;6.106;2024-01-30T12:28:30;100198.19;;;12.55;96.34
73151;BME280;61354;50.758;6.106;2024-01-30T12:31:14;100205.84;;;12.46;97.63
73151;BME280;61354;50.758;6.106;2024-01-30T12:34:00;100196.44;;;12.51;96.99
73151;BME280;61354;50.758;6.106;2024-01-30T12:36:44;100202.16;;;12.54;96.88
73151;BME280;61354;50.758;6.106;2024-01-30T12:39:27;100194.47;;;12.51;97.77
73151;BME280;61354;50.758;6.106;2024-01-30T12:42:11;100193.88;;;12.46;96.89
73151;BME280;61354;50.758;6.106;2024-01-30T12:44:58;100191.56;;;12.48;97.67
73151;BME280;61354;50.758;6.106;2024-01-30T12:47:43;100203.09;;;12.58;97.24
73151;BME280;61354;50.758;6.106;2024-01-30T12:50:27;100198.41;;;12.50;97.53
73151;BME280;61354;50.758;6.106;2024-01-30T12:53:11;100202.16;;;12.54;97.21
73151;BME280;61354;50.758;6.106;2024-01-30T12:55:56;100204.44;;;12.40;97.83
73151;BME280;61354;50.758;6.106;2024-01-30T12:58:40;100207.50;;;12.72;96.99
73151;BME280;61354;50.758;6.106;2024-01-30T13:01:27;100211.91;;;12.60;97.38
73151;BME280;61354;50.758;6.106;2024-01-30T13:04:10;100215.19;;;12.75;96.14
73151;BME280;61354;50.758;6.106;2024-01-30T13:06:54;100206.56;;;12.67;96.25
73151;BME280;61354;50.758;6.106;2024-01-30T13:09:39;100209.34;;;12.55;97.58
73151;BME280;61354;50.758;6.106;2024-01-30T13:12:23;100232.25;;;12.61;96.71
73151;BME280;61354;50.758;6.106;2024-01-30T13:15:07;100229.06;;;12.50;98.29
73151;BME280;61354;50.758;6.106;2024-01-30T13:20:26;100231.81;;;12.38;99.39
73151;BME280;61354;50.758;6.106;2024-01-30T13:23:10;100236.03;;;12.56;98.17
73151;BME280;61354;50.758;6.106;2024-01-30T13:25:54;100239.34;;;12.04;100.00
73151;BME280;61354;50.758;6.106;2024-01-30T13:28:42;100237.84;;;12.07;100.00
73151;BME280;61354;50.758;6.106;2024-01-30T13:31:26;100239.41;;;12.16;99.92
73151;BME280;61354;50.758;6.106;2024-01-30T13:34:11;100238.09;;;12.14;100.00
73151;BME280;61354;50.758;6.106;2024-01-30T13:36:56;100243.53;;;12.10;100.00
73151;BME280;61354;50.758;6.106;2024-01-30T13:39:40;100244.75;;;12.22;100.00
73151;BME280;61354;50.758;6.106;2024-01-30T13:42:24;100237.88;;;12.52;99.33
73151;BME280;61354;50.758;6.106;2024-01-30T13:45:08;100236.00;;;12.44;99.24
73151;BME280;61354;50.758;6.106;2024-01-30T13:47:53;100245.75;;;12.38;100.00
73151;BME280;61354;50.758;6.106;2024-01-30T13:50:37;100244.16;;;12.49;99.43
73151;BME280;61354;50.758;6.106;2024-01-30T13:53:21;100241.78;;;12.39;100.00
73151;BME280;61354;50.758;6.106;2024-01-30T13:56:05;100249.91;;;12.11;100.00
73151;BME280;61354;50.758;6.106;2024-01-30T13:58:50;100243.34;;;12.15;100.00
73151;BME280;61354;50.758;6.106;2024-01-30T14:01:34;100245.25;;;12.03;100.00
73151;BME280;61354;50.758;6.106;2024-01-30T14:04:18;100242.84;;;12.13;100.00
73151;BME280;61354;50.758;6.106;2024-01-30T14:07:02;100238.91;;;12.14;100.00
73151;BME280;61354;50.758;6.106;2024-01-30T14:09:46;100243.44;;;12.40;99.90
73151;BME280;61354;50.758;6.106;2024-01-30T14:12:29;100246.63;;;12.30;100.00
73151;BME280;61354;50.758;6.106;2024-01-30T14:15:14;100229.34;;;12.24;100.00
73151;BME280;61354;50.758;6.106;2024-01-30T14:17:59;100234.16;;;12.36;99.10
73151;BME280;61354;50.758;6.106;2024-01-30T14:20:42;100239.59;;;12.32;98.92
73151;BME280;61354;50.758;6.106;2024-01-30T14:23:26;100255.47;;;12.32;98.30
73151;BME280;61354;50.758;6.106;2024-01-30T14:26:38;100253.59;;;12.24;99.66
73151;BME280;61354;50.758;6.106;2024-01-30T14:29:22;100248.03;;;12.24;99.45
73151;BME280;61354;50.758;6.106;2024-01-30T14:32:13;100255.06;;;12.21;100.00
73151;BME280;61354;50.758;6.106;2024-01-30T14:34:56;100259.13;;;12.44;98.40
73151;BME280;61354;50.758;6.106;2024-01-30T14:41:20;100272.13;;;12.19;100.00
73151;BME280;61354;50.758;6.106;2024-01-30T14:44:04;100273.38;;;11.80;100.00
73151;BME280;61354;50.758;6.106;2024-01-30T14:46:49;100273.63;;;11.96;100.00
73151;BME280;61354;50.758;6.106;2024-01-30T14:49:39;100280.50;;;11.99;100.00
73151;BME280;61354;50.758;6.106;2024-01-30T14:59:45;100308.22;;;11.27;100.00
73151;BME280;61354;50.758;6.106;2024-01-30T15:02:38;100307.03;;;10.90;100.00
73151;BME280;61354;50.758;6.106;2024-01-30T15:05:37;100313.78;;;10.80;100.00
73151;BME280;61354;50.758;6.106;2024-01-30T15:08:37;100315.06;;;10.91;100.00
73151;BME280;61354;50.758;6.106;2024-01-30T15:11:21;100322.19;;;11.10;100.00
73151;BME280;61354;50.758;6.106;2024-01-30T15:14:39;100334.69;;;10.78;100.00
73151;BME280;61354;50.758;6.106;2024-01-30T15:17:29;100336.88;;;10.46;100.00